Time;durP1;ratioP1;P1;durP2;ratioP2;P2;SDS_P1;SDS_P2;PMS_P1;PMS_P2;Temp;Humidity;BMP_temperature;BMP_pressure;BME280_temperature;BME280_humidity;BME280_pressure;Samples;Min_cycle;Max_cycle;Signal;HPM_P1;HPM_P2
2023/05/11 00:01:19;;;;;;;22.55;11.55;;;;;;;;;;6162221;23;20136;-88
2023/05/11 00:04:04;;;;;;;20.55;12.52;;;;;;;;;;6161211;23;20354;-90
2023/05/11 00:06:50;;;;;;;20.02;12.40;;;;;;;;;;6173253;23;20084;-90
2023/05/11 00:09:34;;;;;;;22.52;13.05;;;;;;;;;;6173478;23;20016;-89
2023/05/11 00:12:19;;;;;;;21.75;13.02;;;;;;;;;;6173593;23;20056;-89
2023/05/11 00:15:04;;;;;;;22.85;12.75;;;;;;;;;;6173036;23;20065;-89
2023/05/11 00:17:49;;;;;;;24.50;13.50;;;;;;;;;;6173467;23;20020;-89
2023/05/11 00:20:36;;;;;;;24.77;14.15;;;;;;;;;;6173524;23;20020;-90
2023/05/11 00:23:20;;;;;;;21.80;13.90;;;;;;;;;;6173673;23;20474;-91
2023/05/11 00:26:05;;;;;;;21.73;12.82;;;;;;;;;;6172903;23;20020;-90
2023/05/11 00:28:50;;;;;;;23.00;13.77;;;;;;;;;;6173577;23;20016;-90
2023/05/11 00:31:34;;;;;;;23.15;13.35;;;;;;;;;;6173621;23;20526;-91
2023/05/11 00:34:19;;;;;;;22.25;12.68;;;;;;;;;;6173206;23;20020;-92
2023/05/11 00:37:04;;;;;;;18.88;12.90;;;;;;;;;;6153322;23;20077;-92
2023/05/11 00:39:48;;;;;;;20.60;12.05;;;;;;;;;;6173228;23;20073;-90
2023/05/11 00:42:33;;;;;;;18.85;11.80;;;;;;;;;;6153665;23;20017;-90
2023/05/11 00:45:18;;;;;;;19.35;12.15;;;;;;;;;;6153064;23;20076;-90
2023/05/11 00:48:03;;;;;;;23.10;11.93;;;;;;;;;;6152999;23;20016;-89
2023/05/11 00:50:48;;;;;;;24.20;12.40;;;;;;;;;;6173547;23;20048;-89
2023/05/11 00:53:32;;;;;;;20.88;12.75;;;;;;;;;;6154535;23;20029;-89
2023/05/11 00:56:17;;;;;;;22.17;12.73;;;;;;;;;;6174545;23;20064;-90
2023/05/11 00:59:01;;;;;;;19.85;12.88;;;;;;;;;;6195762;23;20020;-90
2023/05/11 01:01:46;;;;;;;23.75;13.52;;;;;;;;;;6155401;23;20020;-91
2023/05/11 01:04:31;;;;;;;20.63;12.73;;;;;;;;;;6175161;23;20040;-90
2023/05/11 01:07:24;;;;;;;21.35;12.43;;;11.90;99.90;;;;;;6174406;23;20017;-89
2023/05/11 01:10:41;;;;;;;26.42;13.20;;;11.90;99.90;;;;;;6154478;23;20016;-89
2023/05/11 01:13:39;;;;;;;26.10;13.82;;;;;;;;;;6155033;23;20021;-90
2023/05/11 01:16:23;;;;;;;28.95;15.90;;;;;;;;;;6174414;23;20063;-90
2023/05/11 01:19:37;;;;;;;35.38;16.90;;;11.90;99.90;;;;;;6174264;23;20037;-90
2023/05/11 01:22:38;;;;;;;34.67;16.60;;;;;;;;;;6132422;23;20016;-90
2023/05/11 01:25:38;;;;;;;33.65;16.20;;;;;;;;;;6154881;23;20623;-89
2023/05/11 01:28:35;;;;;;;32.05;15.88;;;;;;;;;;6174374;23;20620;-89
2023/05/11 01:31:20;;;;;;;25.73;13.73;;;;;;;;;;6153432;23;20342;-89
2023/05/11 01:34:09;;;;;;;27.42;15.38;;;;;;;;;;6154561;23;20096;-89
2023/05/11 01:37:02;;;;;;;25.08;14.32;;;11.70;99.90;;;;;;6155414;23;20505;-89
2023/05/11 01:39:54;;;;;;;28.10;15.52;;;;;;;;;;6155064;23;20017;-89
2023/05/11 01:42:44;;;;;;;31.92;15.82;;;;;;;;;;6174814;23;20052;-89
2023/05/11 01:45:31;;;;;;;42.60;17.25;;;;;;;;;;6154757;23;20486;-90
2023/05/11 01:48:22;;;;;;;40.70;19.27;;;11.70;99.90;;;;;;6154256;23;20013;-90
2023/05/11 01:51:08;;;;;;;41.22;19.10;;;;;;;;;;6154322;23;20040;-89
2023/05/11 01:53:53;;;;;;;43.97;19.83;;;;;;;;;;6173953;23;20027;-90
2023/05/11 01:56:40;;;;;;;42.80;17.60;;;;;;;;;;6174767;23;20060;-90
2023/05/11 01:59:25;;;;;;;40.92;18.58;;;;;;;;;;6174022;23;20016;-89
2023/05/11 02:02:11;;;;;;;45.67;18.65;;;;;;;;;;6154296;23;20020;-89
2023/05/11 02:04:57;;;;;;;44.85;19.23;;;;;;;;;;6154715;23;20060;-89
2023/05/11 02:07:43;;;;;;;40.65;15.77;;;;;;;;;;6154713;23;20016;-89
2023/05/11 02:10:28;;;;;;;28.08;14.38;;;;;;;;;;6154054;23;20019;-91
2023/05/11 02:13:15;;;;;;;23.70;12.27;;;11.60;99.90;;;;;;6173876;23;20019;-90
2023/05/11 02:16:01;;;;;;;20.10;12.48;;;;;;;;;;6153472;23;20017;-90
2023/05/11 02:18:46;;;;;;;21.25;12.18;;;;;;;;;;6154664;23;20779;-89
2023/05/11 02:21:31;;;;;;;21.48;12.52;;;;;;;;;;6173948;23;20020;-90
2023/05/11 02:24:18;;;;;;;22.27;12.40;;;11.60;99.90;;;;;;6173996;23;20017;-89
2023/05/11 02:27:02;;;;;;;24.10;12.82;;;;;;;;;;6154665;23;20128;-89
2023/05/11 02:29:47;;;;;;;22.30;13.10;;;;;;;;;;6174165;23;20052;-88
2023/05/11 02:32:36;;;;;;;21.27;12.48;;;11.50;99.90;;;;;;6153939;23;20521;-88
2023/05/11 02:35:24;;;;;;;24.55;13.52;;;11.50;99.90;;;;;;6173596;23;20017;-89
2023/05/11 02:38:10;;;;;;;24.73;14.40;;;11.50;99.90;;;;;;6154465;23;20084;-90
2023/05/11 02:40:57;;;;;;;28.23;15.23;;;11.40;99.90;;;;;;6132207;23;20025;-89
2023/05/11 02:43:49;;;;;;;29.02;15.35;;;11.50;99.90;;;;;;6154352;23;20056;-90
2023/05/11 02:46:37;;;;;;;28.02;15.10;;;11.40;99.90;;;;;;6153758;23;20556;-88
2023/05/11 02:49:24;;;;;;;39.15;16.65;;;11.40;99.90;;;;;;6153797;23;20514;-91
2023/05/11 02:52:10;;;;;;;37.15;16.75;;;11.40;99.90;;;;;;6174167;23;20032;-89
2023/05/11 02:54:56;;;;;;;36.65;16.90;;;;;;;;;;6174068;23;20049;-88
2023/05/11 02:57:41;;;;;;;44.97;18.45;;;;;;;;;;6154313;23;20016;-89
2023/05/11 03:00:26;;;;;;;53.83;20.75;;;;;;;;;;6153651;23;20036;-89
2023/05/11 03:03:11;;;;;;;44.25;18.75;;;;;;;;;;6173908;23;20019;-89
2023/05/11 03:05:56;;;;;;;43.05;19.38;;;;;;;;;;6154253;23;20060;-89
2023/05/11 03:08:41;;;;;;;32.80;16.88;;;11.40;99.90;;;;;;6173633;23;20020;-89
2023/05/11 03:11:26;;;;;;;40.20;19.48;;;;;;;;;;6153501;23;20017;-90
2023/05/11 03:14:11;;;;;;;40.40;19.30;;;;;;;;;;6173920;23;20024;-88
2023/05/11 03:16:55;;;;;;;39.85;18.30;;;;;;;;;;6153851;23;20017;-89
2023/05/11 03:19:41;;;;;;;36.30;17.75;;;11.50;99.90;;;;;;6173022;23;20020;-90
2023/05/11 03:22:26;;;;;;;40.45;19.13;;;;;;;;;;6153498;23;20071;-88
2023/05/11 03:25:11;;;;;;;40.28;18.48;;;;;;;;;;6173968;23;20064;-89
2023/05/11 03:27:57;;;;;;;39.42;16.85;;;;;;;;;;6173759;23;20089;-90
2023/05/11 03:30:44;;;;;;;43.58;18.50;;;;;;;;;;6173271;23;20059;-91
2023/05/11 03:33:29;;;;;;;53.00;20.20;;;;;;;;;;6173233;23;20020;-90
2023/05/11 03:36:14;;;;;;;48.95;19.60;;;;;;;;;;6153966;23;20327;-89
2023/05/11 03:38:59;;;;;;;41.97;19.23;;;;;;;;;;6173753;23;20117;-91
2023/05/11 03:41:49;;;;;;;51.25;20.45;;;11.50;99.90;;;;;;6153329;23;20032;-91
2023/05/11 03:44:34;;;;;;;46.53;19.90;;;;;;;;;;6153450;23;20089;-90
2023/05/11 03:47:19;;;;;;;56.72;20.90;;;;;;;;;;6154033;23;20021;-89
2023/05/11 03:50:04;;;;;;;63.30;21.23;;;;;;;;;;6173700;23;20466;-87
2023/05/11 03:52:51;;;;;;;46.80;18.75;;;11.50;99.90;;;;;;6173661;23;20021;-91
2023/05/11 03:55:36;;;;;;;40.63;17.20;;;;;;;;;;6151640;23;20024;-91
2023/05/11 03:58:21;;;;;;;45.20;18.02;;;;;;;;;;6173785;23;20017;-90
2023/05/11 04:01:07;;;;;;;34.15;14.80;;;;;;;;;;6173726;23;20348;-91
2023/05/11 04:03:52;;;;;;;33.65;14.85;;;;;;;;;;6153797;23;20017;-91
2023/05/11 04:06:37;;;;;;;33.13;14.45;;;;;;;;;;6173220;23;20347;-90
2023/05/11 04:09:21;;;;;;;32.80;13.95;;;;;;;;;;6154181;23;20020;-91
2023/05/11 04:12:06;;;;;;;31.02;13.68;;;;;;;;;;6153870;23;20035;-91
2023/05/11 04:14:51;;;;;;;32.40;14.52;;;;;;;;;;6173476;23;20109;-91
2023/05/11 04:17:35;;;;;;;38.90;16.20;;;;;;;;;;6172875;23;20048;-90
2023/05/11 04:20:20;;;;;;;43.63;17.40;;;;;;;;;;6173648;23;20020;-91
2023/05/11 04:23:04;;;;;;;46.13;17.23;;;;;;;;;;6153735;23;20389;-90
2023/05/11 04:25:55;;;;;;;64.78;20.02;;;11.40;99.90;;;;;;6153018;23;20016;-89
2023/05/11 04:28:40;;;;;;;83.90;23.10;;;;;;;;;;6174287;23;20442;-89
2023/05/11 04:31:25;;;;;;;76.22;22.90;;;;;;;;;;6175161;23;20052;-89
2023/05/11 04:34:09;;;;;;;99.35;23.50;;;;;;;;;;6175497;23;20375;-89
2023/05/11 04:36:54;;;;;;;124.90;25.85;;;;;;;;;;6155251;23;20025;-89
2023/05/11 04:39:38;;;;;;;87.35;25.10;;;;;;;;;;6154994;23;20491;-90
2023/05/11 04:42:23;;;;;;;116.22;27.67;;;;;;;;;;6175070;23;20075;-91
2023/05/11 04:45:07;;;;;;;102.53;26.00;;;;;;;;;;6155515;23;20076;-91
2023/05/11 04:47:52;;;;;;;137.77;28.63;;;;;;;;;;6174590;23;20021;-90
2023/05/11 04:50:37;;;;;;;79.22;22.38;;;;;;;;;;6174566;23;20060;-91
2023/05/11 04:53:21;;;;;;;69.80;21.73;;;;;;;;;;6173203;23;20072;-90
2023/05/11 04:56:06;;;;;;;57.45;19.85;;;;;;;;;;6171094;23;20068;-89
2023/05/11 04:58:50;;;;;;;66.57;20.65;;;;;;;;;;6172483;23;20691;-90
2023/05/11 05:01:35;;;;;;;53.22;18.42;;;;;;;;;;6173092;23;20024;-91
2023/05/11 05:04:20;;;;;;;46.67;17.20;;;;;;;;;;6154459;23;20025;-91
2023/05/11 05:07:04;;;;;;;59.42;19.48;;;;;;;;;;6154397;23;20121;-89
2023/05/11 05:09:49;;;;;;;56.15;18.63;;;;;;;;;;6154509;23;20036;-90
2023/05/11 05:12:35;;;;;;;48.08;19.08;;;;;;;;;;6154852;23;20097;-88
2023/05/11 05:15:20;;;;;;;57.08;19.77;;;;;;;;;;6174764;23;20461;-90
2023/05/11 05:18:05;;;;;;;50.53;18.42;;;;;;;;;;6175072;23;20065;-89
2023/05/11 05:20:49;;;;;;;54.10;20.73;;;;;;;;;;6174910;23;20502;-93
2023/05/11 05:23:34;;;;;;;44.30;17.20;;;;;;;;;;6155509;23;20100;-89
2023/05/11 05:26:20;;;;;;;44.30;15.65;;;;;;;;;;6175222;23;20052;-94
2023/05/11 05:29:05;;;;;;;44.33;17.23;;;11.50;99.90;;;;;;6175570;23;20335;-93
2023/05/11 05:31:50;;;;;;;40.05;15.38;;;;;;;;;;6174533;23;20505;-92
2023/05/11 05:34:35;;;;;;;35.90;15.73;;;;;;;;;;6175508;23;20408;-91
2023/05/11 05:37:20;;;;;;;38.15;15.27;;;;;;;;;;6155754;23;20466;-90
2023/05/11 05:40:04;;;;;;;39.88;16.70;;;;;;;;;;6174937;23;20060;-92
2023/05/11 05:42:49;;;;;;;40.53;16.75;;;;;;;;;;6174156;23;20064;-90
2023/05/11 05:45:34;;;;;;;39.83;16.15;;;;;;;;;;6174610;23;20017;-91
2023/05/11 05:48:19;;;;;;;40.20;16.25;;;;;;;;;;6174683;23;20021;-90
2023/05/11 05:51:04;;;;;;;37.95;14.93;;;;;;;;;;6155000;23;20048;-88
2023/05/11 05:53:49;;;;;;;36.15;16.48;;;;;;;;;;6173635;23;20028;-90
2023/05/11 05:56:33;;;;;;;35.10;15.82;;;;;;;;;;6174687;23;20091;-92
2023/05/11 05:59:22;;;;;;;28.35;14.32;;;;;;;;;;6175164;23;20040;-94
2023/05/11 06:02:06;;;;;;;33.30;13.95;;;;;;;;;;6174804;23;20047;-89
2023/05/11 06:04:51;;;;;;;32.80;14.27;;;;;;;;;;6153358;23;20021;-89
2023/05/11 06:07:35;;;;;;;29.20;13.70;;;;;;;;;;6155502;23;20020;-93
2023/05/11 06:10:20;;;;;;;31.42;14.57;;;;;;;;;;6175253;23;20032;-90
2023/05/11 06:13:04;;;;;;;26.70;14.25;;;;;;;;;;6173985;23;20097;-92
2023/05/11 06:15:49;;;;;;;29.92;14.05;;;;;;;;;;6174368;23;20020;-92
2023/05/11 06:18:34;;;;;;;31.63;14.40;;;;;;;;;;6154796;23;20015;-86
2023/05/11 06:21:19;;;;;;;33.30;13.82;;;;;;;;;;6173891;23;20105;-89
2023/05/11 06:24:04;;;;;;;29.80;13.98;;;;;;;;;;6154167;23;20013;-88
2023/05/11 06:26:48;;;;;;;29.20;13.98;;;;;;;;;;6171909;23;20450;-85
2023/05/11 06:29:33;;;;;;;30.58;14.27;;;;;;;;;;6154605;23;20021;-90
2023/05/11 06:32:17;;;;;;;33.42;15.93;;;;;;;;;;6175450;23;20020;-89
2023/05/11 06:35:02;;;;;;;27.98;13.95;;;;;;;;;;6154229;23;20029;-89
2023/05/11 06:37:46;;;;;;;33.60;16.85;;;;;;;;;;6173849;23;20016;-87
2023/05/11 06:40:31;;;;;;;33.03;15.45;;;;;;;;;;6154576;23;20016;-90
2023/05/11 06:43:15;;;;;;;37.38;15.75;;;;;;;;;;6174498;23;20021;-90
2023/05/11 06:46:00;;;;;;;38.17;16.70;;;;;;;;;;6154060;23;20021;-89
2023/05/11 06:48:45;;;;;;;34.85;16.33;;;;;;;;;;6154652;23;20486;-93
2023/05/11 06:51:29;;;;;;;39.22;16.70;;;;;;;;;;6154252;23;20343;-91
2023/05/11 06:54:14;;;;;;;36.70;15.45;;;;;;;;;;6153864;23;20028;-90
2023/05/11 06:56:58;;;;;;;33.85;16.17;;;;;;;;;;6173151;23;20056;-89
2023/05/11 06:59:43;;;;;;;30.75;14.57;;;;;;;;;;6154411;23;20020;-91
2023/05/11 07:02:27;;;;;;;34.90;16.00;;;;;;;;;;6154356;23;20054;-90
2023/05/11 07:05:12;;;;;;;36.25;16.20;;;;;;;;;;6153800;23;20012;-92
2023/05/11 07:07:57;;;;;;;30.48;15.15;;;;;;;;;;6173673;23;20499;-90
2023/05/11 07:10:41;;;;;;;30.50;14.48;;;;;;;;;;6174045;23;20040;-92
2023/05/11 07:13:26;;;;;;;33.55;15.65;;;;;;;;;;6174299;23;20033;-91
2023/05/11 07:16:10;;;;;;;41.20;17.50;;;;;;;;;;6153595;23;20451;-92
2023/05/11 07:18:55;;;;;;;34.75;16.98;;;;;;;;;;6153762;23;20462;-92
2023/05/11 07:21:39;;;;;;;29.77;15.98;;;;;;;;;;6173987;23;20029;-93
2023/05/11 07:24:24;;;;;;;43.10;17.92;;;;;;;;;;6154204;23;20093;-92
2023/05/11 07:27:09;;;;;;;34.10;16.23;;;;;;;;;;6153603;23;20020;-91
2023/05/11 07:29:54;;;;;;;33.53;16.30;;;;;;;;;;6173297;23;20021;-90
2023/05/11 07:32:38;;;;;;;33.28;16.55;;;;;;;;;;6173589;23;20076;-93
2023/05/11 07:35:23;;;;;;;35.13;16.35;;;;;;;;;;6173690;23;20056;-90
2023/05/11 07:38:10;;;;;;;35.38;16.80;;;;;;;;;;6153053;23;20016;-90
2023/05/11 07:40:55;;;;;;;32.20;16.48;;;;;;;;;;6172373;23;20530;-89
2023/05/11 07:43:40;;;;;;;39.38;17.63;;;;;;;;;;6173950;23;20041;-90
2023/05/11 07:46:25;;;;;;;39.33;17.20;;;;;;;;;;6173980;23;20021;-90
2023/05/11 07:49:09;;;;;;;33.95;16.98;;;;;;;;;;6173060;23;20387;-90
2023/05/11 07:51:54;;;;;;;36.15;16.83;;;;;;;;;;6173078;23;20076;-88
2023/05/11 07:54:39;;;;;;;41.58;20.33;;;;;;;;;;6173739;23;20072;-90
2023/05/11 07:57:24;;;;;;;37.20;18.25;;;;;;;;;;6173398;23;20021;-90
2023/05/11 08:00:08;;;;;;;35.75;16.95;;;;;;;;;;6153046;23;20105;-90
2023/05/11 08:02:53;;;;;;;33.50;16.38;;;;;;;;;;6172940;23;20020;-91
2023/05/11 08:05:38;;;;;;;31.85;16.23;;;;;;;;;;6173596;23;20021;-91
2023/05/11 08:08:23;;;;;;;32.80;15.88;;;12.70;99.90;;;;;;6173501;23;20454;-89
2023/05/11 08:11:09;;;;;;;33.95;16.77;;;;;;;;;;6153113;23;20111;-91
2023/05/11 08:13:53;;;;;;;35.30;16.92;;;;;;;;;;6173683;23;20016;-91
2023/05/11 08:16:37;;;;;;;36.13;17.20;;;;;;;;;;6173767;23;20016;-91
2023/05/11 08:19:22;;;;;;;38.63;17.73;;;;;;;;;;6153164;23;20063;-91
2023/05/11 08:22:06;;;;;;;39.33;18.08;;;;;;;;;;6173335;23;20088;-92
2023/05/11 08:24:51;;;;;;;35.47;16.55;;;;;;;;;;6174152;23;20025;-93
2023/05/11 08:27:35;;;;;;;39.55;17.80;;;;;;;;;;6173784;23;20068;-91
2023/05/11 08:30:20;;;;;;;48.05;18.58;;;;;;;;;;6154696;23;20040;-94
2023/05/11 08:33:06;;;;;;;38.20;15.02;;;;;;;;;;6174047;23;20048;-93
2023/05/11 08:36:09;;;;;;;34.10;14.77;;;;;;;;;;6174003;23;20014;-91
2023/05/11 08:38:56;;;;;;;31.42;13.30;;;;;;;;;;6173567;23;20097;-91
2023/05/11 08:41:43;;;;;;;46.90;13.85;;;;;;;;;;6173744;23;20531;-91
2023/05/11 08:44:36;;;;;;;31.20;14.82;;;;;;;;;;6174160;23;20016;-91
2023/05/11 08:47:21;;;;;;;34.17;15.10;;;;;;;;;;6173685;23;20012;-92
2023/05/11 08:50:06;;;;;;;41.30;15.63;;;;;;;;;;6180447;23;20098;-93
2023/05/11 08:52:51;;;;;;;32.90;13.75;;;;;;;;;;6173641;23;20450;-91
2023/05/11 08:55:40;;;;;;;43.75;15.65;;;;;;;;;;6173427;23;20072;-92
2023/05/11 08:58:26;;;;;;;25.67;12.20;;;;;;;;;;6173168;23;20081;-91
2023/05/11 09:01:11;;;;;;;21.25;11.20;;;;;;;;;;6173024;23;20076;-93
2023/05/11 09:03:57;;;;;;;27.35;12.25;;;;;;;;;;6153693;23;20016;-92
2023/05/11 09:06:42;;;;;;;23.83;12.65;;;;;;;;;;6173861;23;20027;-93
2023/05/11 09:09:29;;;;;;;31.45;13.85;;;;;;;;;;6173237;23;20090;-90
2023/05/11 09:12:16;;;;;;;27.13;13.70;;;;;;;;;;6172644;23;20028;-91
2023/05/11 09:15:10;;;;;;;28.08;13.52;;;;;;;;;;6174891;23;20458;-94
2023/05/11 09:17:57;;;;;;;25.70;14.65;;;;;;;;;;6175142;23;20084;-92
2023/05/11 09:20:43;;;;;;;35.53;16.45;;;;;;;;;;6155417;23;20064;-92
2023/05/11 09:23:27;;;;;;;28.95;15.98;;;;;;;;;;6174873;23;20450;-92
2023/05/11 09:26:33;;;;;;;26.98;14.75;;;;;;;;;;6174395;23;20048;-91
2023/05/11 09:29:20;;;;;;;26.90;15.50;;;;;;;;;;6174588;23;20012;-94
2023/05/11 09:32:05;;;;;;;26.67;14.65;;;;;;;;;;6175139;23;20109;-93
2023/05/11 09:34:50;;;;;;;28.38;15.25;;;;;;;;;;6155234;23;20068;-91
2023/05/11 09:37:51;;;;;;;27.25;15.85;;;;;;;;;;6174431;23;20036;-91
2023/05/11 09:40:38;;;;;;;28.67;16.08;;;;;;;;;;6175179;23;20096;-91
2023/05/11 09:43:27;;;;;;;33.47;17.50;;;;;;;;;;6173876;23;20044;-90
2023/05/11 09:46:20;;;;;;;29.00;16.80;;;;;;;;;;6174570;23;20089;-90
2023/05/11 09:49:05;;;;;;;28.02;16.02;;;;;;;;;;6155165;23;20063;-92
2023/05/11 09:52:00;;;;;;;32.05;16.48;;;;;;;;;;6155156;23;20024;-92
2023/05/11 09:54:48;;;;;;;30.40;17.17;;;;;;;;;;6174797;23;20024;-90
2023/05/11 09:57:35;;;;;;;26.23;16.25;;;;;;;;;;6173962;23;20089;-94
2023/05/11 10:00:28;;;;;;;29.38;17.02;;;;;;;;;;6154136;23;20048;-93
2023/05/11 10:03:24;;;;;;;28.15;16.80;;;;;;;;;;6174480;23;20092;-90
2023/05/11 10:06:08;;;;;;;26.23;16.20;;;;;;;;;;6174821;23;20021;-91
2023/05/11 10:08:56;;;;;;;27.40;16.48;;;;;;;;;;6174687;23;20028;-92
2023/05/11 10:11:43;;;;;;;22.30;13.70;;;;;;;;;;6174531;23;20109;-90
2023/05/11 10:14:28;;;;;;;25.77;15.35;;;;;;;;;;6160103;23;20036;-91
2023/05/11 10:17:14;;;;;;;28.25;16.52;;;;;;;;;;6174565;23;20013;-91
2023/05/11 10:20:02;;;;;;;22.83;14.85;;;;;;;;;;6154686;23;20016;-90
2023/05/11 10:22:51;;;;;;;27.10;16.08;;;;;;;;;;6154754;23;20017;-91
2023/05/11 10:25:38;;;;;;;26.30;16.38;;;;;;;;;;6173892;23;20274;-91
2023/05/11 10:28:25;;;;;;;26.73;15.35;;;;;;;;;;6173909;23;20052;-90
2023/05/11 10:31:13;;;;;;;24.35;14.70;;;;;;;;;;6174320;23;20494;-90
2023/05/11 10:34:00;;;;;;;23.85;14.15;;;;;;;;;;6154516;23;20494;-92
2023/05/11 10:36:46;;;;;;;24.88;14.45;;;;;;;;;;6174430;23;20028;-90
2023/05/11 10:39:36;;;;;;;26.98;15.32;;;;;;;;;;6153840;23;20044;-90
2023/05/11 10:42:37;;;;;;;22.58;14.13;;;;;;;;;;6173751;23;20044;-91
2023/05/11 10:45:31;;;;;;;24.20;15.75;;;;;;;;;;6173654;23;20020;-92
2023/05/11 10:48:28;;;;;;;25.30;15.27;;;;;;;;;;6154662;23;20013;-90
2023/05/11 10:51:16;;;;;;;19.73;13.27;;;;;;;;;;6174376;23;20019;-90
2023/05/11 10:54:30;;;;;;;22.00;13.88;;;;;;;;;;6174124;23;20346;-90
2023/05/11 10:57:24;;;;;;;19.17;12.18;;;;;;;;;;6107793;23;20028;-90
2023/05/11 11:00:20;;;;;;;15.80;11.63;;;;;;;;;;6174193;23;20024;-90
2023/05/11 11:03:09;;;;;;;16.30;11.63;;;;;;;;;;6154480;23;20491;-89
2023/05/11 11:05:54;;;;;;;17.23;11.25;;;;;;;;;;6173635;23;20096;-89
2023/05/11 11:08:58;;;;;;;15.25;10.90;;;;;;;;;;6173302;23;20097;-90
2023/05/11 11:11:46;;;;;;;12.75;9.05;;;;;;;;;;6150455;23;20025;-87
2023/05/11 11:14:54;;;;;;;14.32;10.43;;;;;;;;;;6152729;23;20012;-94
2023/05/11 11:17:38;;;;;;;13.27;9.93;;;;;;;;;;6172757;23;20024;-90
2023/05/11 11:20:48;;;;;;;16.10;8.82;;;15.10;99.90;;;;;;6173813;23;20021;-92
2023/05/11 11:23:40;;;;;;;11.63;8.50;;;;;;;;;;6173217;23;20115;-90
2023/05/11 11:26:43;;;;;;;11.65;7.50;;;;;;;;;;6173678;23;20111;-89
2023/05/11 11:29:29;;;;;;;10.95;8.02;;;15.30;99.90;;;;;;6173217;23;20016;-90
2023/05/11 11:32:23;;;;;;;11.38;8.88;;;;;;;;;;6153957;23;20072;-93
2023/05/11 11:35:27;;;;;;;14.43;8.10;;;;;;;;;;6173332;23;20064;-91
2023/05/11 11:38:13;;;;;;;9.23;7.20;;;;;;;;;;6172767;23;20040;-89
2023/05/11 11:40:58;;;;;;;7.63;6.15;;;;;;;;;;6173064;23;20016;-91
2023/05/11 11:43:46;;;;;;;7.10;5.10;;;;;;;;;;6171082;23;20069;-90
2023/05/11 11:46:31;;;;;;;7.28;5.18;;;;;;;;;;6172674;23;20071;-90
2023/05/11 11:49:16;;;;;;;10.02;5.95;;;;;;;;;;6153954;23;20016;-91
2023/05/11 11:52:02;;;;;;;7.43;5.50;;;;;;;;;;6173315;23;20045;-91
2023/05/11 11:54:47;;;;;;;6.88;4.38;;;;;;;;;;6194013;23;20024;-92
2023/05/11 11:57:35;;;;;;;8.18;5.30;;;;;;;;;;6143100;23;20096;-90
2023/05/11 12:00:20;;;;;;;6.65;4.88;;;15.70;99.90;;;;;;6144146;23;20092;-91
2023/05/11 12:03:04;;;;;;;7.05;4.60;;;;;;;;;;6124234;23;20064;-91
2023/05/11 12:05:52;;;;;;;5.30;3.78;;;15.70;99.90;;;;;;6123950;23;20182;-92
2023/05/11 12:08:38;;;;;;;6.20;3.67;;;15.60;99.90;;;;;;6124217;23;20490;-91
2023/05/11 12:11:25;;;;;;;5.43;4.07;;;;;;;;;;6124608;23;20076;-91
2023/05/11 12:14:10;;;;;;;5.88;3.60;;;15.80;99.90;;;;;;6143870;23;20017;-92
2023/05/11 12:17:12;;;;;;;8.80;3.53;;;15.80;99.90;;;;;;6123901;23;20028;-93
2023/05/11 12:20:13;;;;;;;4.97;3.22;;;15.90;99.90;;;;;;6124657;23;20036;-90
2023/05/11 12:22:58;;;;;;;4.93;3.03;;;;;;;;;;6143587;23;20020;-92
2023/05/11 12:25:43;;;;;;;4.68;3.05;;;;;;;;;;6143863;23;20041;-92
2023/05/11 12:28:27;;;;;;;4.50;3.03;;;;;;;;;;6144396;23;20155;-92
2023/05/11 12:31:12;;;;;;;4.43;2.85;;;;;;;;;;6144225;23;20024;-93
2023/05/11 12:33:56;;;;;;;7.30;2.85;;;;;;;;;;6124373;23;20017;-92
2023/05/11 12:36:41;;;;;;;4.80;3.00;;;;;;;;;;6144166;23;20017;-90
2023/05/11 12:39:26;;;;;;;4.68;2.90;;;16.40;99.90;;;;;;6145270;23;20013;-93
2023/05/11 12:42:17;;;;;;;6.55;3.22;;;16.30;99.90;;;;;;6144712;23;20025;-92
2023/05/11 12:45:03;;;;;;;5.38;2.78;;;16.20;99.90;;;;;;6125192;23;20439;-93
2023/05/11 12:47:49;;;;;;;4.00;2.30;;;16.10;99.90;;;;;;6124766;23;20032;-90
2023/05/11 12:50:39;;;;;;;4.53;2.22;;;16.10;99.90;;;;;;6126965;23;20029;-91
2023/05/11 12:53:25;;;;;;;4.40;1.90;;;;;;;;;;6127699;23;20462;-90
2023/05/11 12:56:09;;;;;;;4.00;1.83;;;;;;;;;;6142690;23;20056;-91
2023/05/11 12:58:54;;;;;;;2.63;1.77;;;;;;;;;;6175103;23;20068;-90
2023/05/11 13:01:39;;;;;;;3.95;2.33;;;;;;;;;;6175578;23;20067;-89
2023/05/11 13:04:33;;;;;;;3.25;1.70;;;;;;;;;;6158142;23;20016;-90
2023/05/11 13:07:26;;;;;;;5.07;2.10;;;16.30;99.90;;;;;;6178050;23;20012;-91
2023/05/11 13:10:14;;;;;;;3.88;1.70;;;16.30;99.90;;;;;;6157651;23;20110;-90
2023/05/11 13:12:59;;;;;;;4.30;2.22;;;;;;;;;;6156997;23;20089;-91
2023/05/11 13:15:51;;;;;;;3.10;1.92;;;16.40;99.90;;;;;;6177133;23;20379;-90
2023/05/11 13:18:35;;;;;;;3.05;2.05;;;;;;;;;;6157271;23;20502;-89
2023/05/11 13:21:21;;;;;;;3.53;2.03;;;;;;;;;;6155390;23;20068;-90
2023/05/11 13:24:06;;;;;;;4.00;2.67;;;;;;;;;;6174608;23;20045;-89
2023/05/11 13:26:51;;;;;;;4.53;2.20;;;;;;;;;;6154322;23;20104;-92
2023/05/11 13:29:35;;;;;;;3.70;2.58;;;;;;;;;;6175178;23;20016;-90
2023/05/11 13:32:20;;;;;;;4.65;3.20;;;;;;;;;;6175681;23;20025;-90
2023/05/11 13:35:05;;;;;;;5.88;3.38;;;;;;;;;;6174664;23;20029;-91
2023/05/11 13:37:49;;;;;;;5.22;3.55;;;;;;;;;;6174353;23;20036;-89
2023/05/11 13:40:34;;;;;;;5.55;3.58;;;;;;;;;;6175401;23;20039;-91
2023/05/11 13:43:18;;;;;;;6.47;2.85;;;;;;;;;;6175169;23;20374;-91
2023/05/11 13:46:03;;;;;;;4.15;2.75;;;;;;;;;;6174588;23;20048;-90
2023/05/11 13:48:48;;;;;;;4.85;2.40;;;;;;;;;;6174204;23;20386;-91
2023/05/11 13:51:33;;;;;;;4.10;1.58;;;;;;;;;;6154950;23;20028;-91
2023/05/11 13:54:18;;;;;;;2.97;1.73;;;;;;;;;;6174589;23;20053;-90
2023/05/11 13:57:02;;;;;;;2.78;1.90;;;15.80;99.90;;;;;;6154572;23;20037;-90
2023/05/11 13:59:47;;;;;;;4.40;1.75;;;;;;;;;;6174281;23;20068;-90
2023/05/11 14:02:31;;;;;;;4.50;1.55;;;;;;;;;;6174740;23;20399;-90
2023/05/11 14:05:16;;;;;;;5.35;1.80;;;;;;;;;;6155831;23;20021;-90
2023/05/11 14:08:01;;;;;;;2.55;1.30;;;;;;;;;;6175258;23;20097;-89
2023/05/11 14:10:45;;;;;;;3.15;1.50;;;;;;;;;;6174966;23;20055;-89
2023/05/11 14:13:30;;;;;;;4.30;1.45;;;;;;;;;;6175348;23;20061;-91
2023/05/11 14:16:14;;;;;;;3.80;1.40;;;15.90;99.90;;;;;;6155907;23;20017;-90
2023/05/11 14:18:59;;;;;;;2.42;1.23;;;;;;;;;;6174970;23;20025;-89
2023/05/11 14:21:44;;;;;;;3.88;1.83;;;;;;;;;;6155377;23;20020;-90
2023/05/11 14:24:28;;;;;;;4.35;2.10;;;;;;;;;;6175789;23;20020;-91
2023/05/11 14:27:13;;;;;;;3.40;2.15;;;;;;;;;;6174217;23;20140;-90
2023/05/11 14:29:58;;;;;;;4.43;2.55;;;;;;;;;;6173952;23;20020;-90
2023/05/11 14:32:43;;;;;;;4.60;2.83;;;;;;;;;;6174653;23;20547;-88
2023/05/11 14:35:27;;;;;;;5.32;2.80;;;;;;;;;;6155123;23;20067;-91
2023/05/11 14:38:12;;;;;;;5.68;3.10;;;;;;;;;;6173818;23;20020;-92
2023/05/11 14:40:56;;;;;;;6.30;3.63;;;;;;;;;;6154185;23;20068;-90
2023/05/11 14:43:41;;;;;;;4.97;3.40;;;;;;;;;;6174765;23;20514;-91
2023/05/11 14:46:25;;;;;;;5.47;3.53;;;;;;;;;;6155002;23;20024;-90
2023/05/11 14:49:10;;;;;;;5.05;3.10;;;;;;;;;;6153875;23;20097;-88
2023/05/11 14:51:56;;;;;;;5.65;3.72;;;;;;;;;;6174073;23;20466;-88
2023/05/11 14:54:41;;;;;;;5.93;3.40;;;;;;;;;;6154547;23;20031;-91
2023/05/11 14:57:26;;;;;;;4.95;3.90;;;;;;;;;;6154894;23;20132;-91
2023/05/11 15:00:12;;;;;;;6.07;3.95;;;;;;;;;;6154571;23;20021;-93
2023/05/11 15:02:56;;;;;;;5.68;3.83;;;;;;;;;;6174460;23;20387;-91
2023/05/11 15:05:41;;;;;;;7.10;4.60;;;;;;;;;;6154833;23;20092;-90
2023/05/11 15:08:26;;;;;;;5.75;4.13;;;;;;;;;;6155445;23;20085;-90
2023/05/11 15:11:10;;;;;;;5.75;3.72;;;;;;;;;;6173523;23;20025;-91
2023/05/11 15:13:55;;;;;;;5.47;3.83;;;;;;;;;;6174108;23;20099;-88
2023/05/11 15:16:39;;;;;;;5.78;4.10;;;;;;;;;;6174511;23;20021;-91
2023/05/11 15:19:24;;;;;;;4.85;4.20;;;;;;;;;;6154178;23;20348;-91
2023/05/11 15:22:09;;;;;;;5.95;4.72;;;;;;;;;;6173376;23;20408;-91
2023/05/11 15:24:54;;;;;;;6.40;4.80;;;;;;;;;;6174130;23;20071;-91
2023/05/11 15:27:39;;;;;;;5.95;4.43;;;;;;;;;;6154606;23;20044;-91
2023/05/11 15:30:24;;;;;;;5.95;4.35;;;;;;;;;;6154171;23;20352;-91
2023/05/11 15:33:09;;;;;;;6.38;4.95;;;;;;;;;;6173692;23;20090;-90
2023/05/11 15:35:53;;;;;;;5.72;4.30;;;;;;;;;;6174276;23;20076;-89
2023/05/11 15:38:38;;;;;;;6.95;5.00;;;;;;;;;;6154691;23;20399;-89
2023/05/11 15:41:23;;;;;;;8.00;5.22;;;;;;;;;;6154310;23;20683;-90
2023/05/11 15:44:07;;;;;;;6.75;4.60;;;;;;;;;;6154718;23;20013;-91
2023/05/11 15:46:52;;;;;;;6.50;5.38;;;;;;;;;;6173673;23;20021;-89
2023/05/11 15:49:37;;;;;;;6.13;4.55;;;;;;;;;;6174121;23;20071;-89
2023/05/11 15:52:21;;;;;;;7.03;5.15;;;;;;;;;;6173207;23;20031;-91
2023/05/11 15:55:06;;;;;;;6.88;5.10;;;;;;;;;;6153636;23;20343;-91
2023/05/11 15:57:51;;;;;;;7.38;4.65;;;;;;;;;;6173110;23;20463;-91
2023/05/11 16:00:36;;;;;;;6.30;4.53;;;;;;;;;;6153997;23;20025;-91